createdAt,value
2022-11-09T00:02:55.591Z,9.50
2022-11-09T00:06:38.129Z,9.50
2022-11-09T00:10:20.066Z,9.50
2022-11-09T00:14:01.948Z,9.50
2022-11-09T00:17:43.830Z,9.50
2022-11-09T00:21:26.037Z,9.40
2022-11-09T00:25:08.486Z,9.40
2022-11-09T00:28:50.962Z,9.40
2022-11-09T00:32:32.917Z,9.40
2022-11-09T00:36:15.071Z,9.40
2022-11-09T00:39:57.232Z,9.40
2022-11-09T00:43:39.231Z,9.30
2022-11-09T00:47:21.462Z,9.30
2022-11-09T00:51:04.126Z,9.30
2022-11-09T00:54:45.945Z,9.30
2022-11-09T00:58:29.646Z,9.30
2022-11-09T01:02:11.529Z,9.20
2022-11-09T01:05:53.903Z,9.20
2022-11-09T01:09:35.749Z,9.20
2022-11-09T01:13:19.792Z,9.30
2022-11-09T01:17:01.925Z,9.30
2022-11-09T01:20:49.653Z,9.30
2022-11-09T01:24:31.658Z,9.30
2022-11-09T01:28:13.757Z,9.40
2022-11-09T01:31:56.189Z,9.40
2022-11-09T01:35:40.082Z,9.40
2022-11-09T01:39:22.107Z,9.40
2022-11-09T01:43:24.207Z,9.50
2022-11-09T01:47:12.900Z,9.60
2022-11-09T01:51:01.570Z,9.80
2022-11-09T01:54:48.319Z,9.90
2022-11-09T01:58:42.148Z,10.00
2022-11-09T02:02:24.766Z,10.00
2022-11-09T02:06:10.223Z,10.00
2022-11-09T02:10:08.513Z,10.00
2022-11-09T02:13:56.859Z,10.00
2022-11-09T02:17:41.027Z,10.00
2022-11-09T02:21:25.578Z,10.00
2022-11-09T02:25:09.043Z,9.90
2022-11-09T02:28:54.358Z,9.90
2022-11-09T02:32:36.382Z,9.90
2022-11-09T02:36:18.263Z,9.90
2022-11-09T02:40:02.780Z,9.90
2022-11-09T02:43:44.813Z,9.90
2022-11-09T02:47:27.259Z,9.80
2022-11-09T02:51:09.155Z,9.90
2022-11-09T02:54:51.219Z,9.90
2022-11-09T02:58:33.136Z,9.90
2022-11-09T03:02:14.974Z,9.90
2022-11-09T03:05:56.843Z,10.00
2022-11-09T03:09:38.758Z,10.00
2022-11-09T03:13:21.101Z,10.00
2022-11-09T03:17:03.162Z,10.10
2022-11-09T03:20:45.077Z,10.10
2022-11-09T03:24:26.893Z,10.10
2022-11-09T03:28:09.252Z,10.10
2022-11-09T03:31:51.227Z,10.00
2022-11-09T03:35:33.312Z,9.90
2022-11-09T03:39:15.198Z,9.80
2022-11-09T03:42:57.933Z,9.80
2022-11-09T03:46:40.059Z,9.70
2022-11-09T03:50:21.924Z,9.70
2022-11-09T03:54:04.008Z,9.70
2022-11-09T03:57:46.931Z,9.70
2022-11-09T04:01:28.911Z,9.80
2022-11-09T04:05:11.595Z,9.80
2022-11-09T04:08:53.450Z,9.90
2022-11-09T04:12:35.371Z,9.90
2022-11-09T04:16:17.292Z,9.90
2022-11-09T04:19:59.419Z,9.90
2022-11-09T04:23:41.313Z,9.90
2022-11-09T04:27:23.339Z,9.90
2022-11-09T04:31:05.414Z,9.90
2022-11-09T04:34:47.416Z,9.90
2022-11-09T04:38:29.311Z,9.80
2022-11-09T04:42:11.534Z,9.80
2022-11-09T04:45:53.726Z,9.70
2022-11-09T04:49:35.607Z,9.70
2022-11-09T04:53:17.745Z,9.70
2022-11-09T04:56:59.680Z,9.60
2022-11-09T05:00:41.526Z,9.50
2022-11-09T05:04:23.478Z,9.50
2022-11-09T05:08:06.437Z,9.40
2022-11-09T05:11:48.322Z,9.40
2022-11-09T05:15:31.003Z,9.40
2022-11-09T05:19:12.959Z,9.40
2022-11-09T05:23:13.798Z,9.50
2022-11-09T05:26:58.799Z,9.50
2022-11-09T05:30:41.043Z,9.50
2022-11-09T05:34:22.887Z,9.60
2022-11-09T05:38:04.904Z,9.60
2022-11-09T05:41:46.824Z,9.50
2022-11-09T05:45:41.917Z,9.50
2022-11-09T05:49:25.124Z,9.50
2022-11-09T05:53:07.682Z,9.40
2022-11-09T05:56:49.627Z,9.50
2022-11-09T06:00:32.111Z,9.50
2022-11-09T06:04:14.103Z,9.50
2022-11-09T06:07:56.046Z,9.50
2022-11-09T06:11:40.093Z,9.50
2022-11-09T06:15:25.044Z,9.50
2022-11-09T06:19:07.031Z,9.60
2022-11-09T06:23:02.514Z,9.60
2022-11-09T06:26:45.326Z,9.60
2022-11-09T06:30:27.295Z,9.60
2022-11-09T06:34:10.525Z,9.60
2022-11-09T06:38:01.964Z,9.60
2022-11-09T06:41:47.374Z,9.60
2022-11-09T06:45:30.679Z,9.60
2022-11-09T06:49:12.558Z,9.50
2022-11-09T06:53:03.337Z,9.40
2022-11-09T06:56:45.222Z,9.30
2022-11-09T07:00:31.502Z,9.30
2022-11-09T07:04:14.903Z,9.20
2022-11-09T07:07:57.405Z,9.10
2022-11-09T07:11:39.758Z,9.00
2022-11-09T07:15:21.707Z,9.00
2022-11-09T07:19:03.609Z,8.90
2022-11-09T07:22:49.923Z,8.90
2022-11-09T07:26:31.866Z,8.80
2022-11-09T07:30:14.304Z,8.80
2022-11-09T07:33:58.438Z,8.80
2022-11-09T07:37:40.391Z,8.80
2022-11-09T07:41:22.902Z,8.80
2022-11-09T07:45:05.234Z,8.80
2022-11-09T07:48:47.172Z,8.90
2022-11-09T07:52:29.023Z,8.80
2022-11-09T07:56:11.136Z,8.80
2022-11-09T07:59:53.671Z,8.90
2022-11-09T08:03:35.741Z,9.00
2022-11-09T08:07:52.371Z,9.10
2022-11-09T08:11:34.508Z,9.30
2022-11-09T08:15:27.586Z,9.50
2022-11-09T08:19:10.502Z,9.80
2022-11-09T08:22:53.797Z,10.10
2022-11-09T08:26:43.114Z,10.50
2022-11-09T08:30:25.984Z,11.00
2022-11-09T08:46:27.550Z,13.50
2022-11-09T08:50:55.001Z,14.10
2022-11-09T08:55:04.936Z,14.00
2022-11-09T08:58:47.208Z,14.10
2022-11-09T09:07:27.943Z,15.20
2022-11-09T09:11:10.107Z,16.00
2022-11-09T09:15:51.966Z,16.50
2022-11-09T09:20:07.017Z,16.90
2022-11-09T09:27:56.275Z,17.70
2022-11-09T09:31:38.213Z,18.00
2022-11-09T09:35:52.863Z,18.10
2022-11-09T09:43:49.119Z,17.80
2022-11-09T09:47:59.787Z,16.80
2022-11-09T09:51:50.084Z,15.80
2022-11-09T09:59:41.096Z,14.20
2022-11-09T10:03:48.190Z,13.70
2022-11-09T10:25:58.176Z,12.80
2022-11-09T10:29:48.976Z,12.80
2022-11-09T10:33:31.119Z,12.70
2022-11-09T10:37:34.652Z,12.60
2022-11-09T10:45:42.563Z,12.50
2022-11-09T10:53:36.243Z,12.40
2022-11-09T10:57:52.604Z,12.40
2022-11-09T11:01:38.113Z,12.40
2022-11-09T11:09:24.049Z,12.40
2022-11-09T11:13:39.704Z,12.40
2022-11-09T11:17:29.044Z,12.40
2022-11-09T11:29:41.912Z,12.50
2022-11-09T11:37:40.500Z,12.70
2022-11-09T11:45:41.560Z,12.70
2022-11-09T11:49:50.541Z,12.90
2022-11-09T11:57:58.634Z,13.10
2022-11-09T12:02:26.821Z,13.20
2022-11-09T12:06:38.529Z,13.10
2022-11-09T12:32:59.703Z,13.10
2022-11-09T12:37:03.509Z,13.20
2022-11-09T12:49:39.618Z,13.90
2022-11-09T12:53:56.231Z,14.10
2022-11-09T12:57:38.273Z,14.20
2022-11-09T13:02:06.108Z,14.30
2022-11-09T13:06:16.418Z,14.30
2022-11-09T13:10:01.594Z,14.20
2022-11-09T13:14:30.471Z,14.10
2022-11-09T13:18:57.695Z,13.90
2022-11-09T13:23:10.762Z,13.80
2022-11-09T13:26:57.618Z,13.80
2022-11-09T13:31:05.014Z,13.60
2022-11-09T13:34:49.714Z,13.60
2022-11-09T13:43:40.786Z,13.60
2022-11-09T13:51:47.035Z,13.60
2022-11-09T13:55:50.559Z,13.70
2022-11-09T13:59:43.177Z,13.80
2022-11-09T14:07:34.690Z,13.80
2022-11-09T14:16:17.295Z,13.50
2022-11-09T14:28:41.574Z,12.90
2022-11-09T14:36:41.992Z,12.90
2022-11-09T14:44:44.483Z,12.80
2022-11-09T14:52:30.167Z,12.60
2022-11-09T14:56:41.639Z,12.60
2022-11-09T15:05:02.003Z,12.50
2022-11-09T15:09:14.486Z,12.60
2022-11-09T15:17:19.311Z,12.60
2022-11-09T15:29:45.247Z,12.50
2022-11-09T15:33:52.407Z,12.40
2022-11-09T15:41:44.774Z,12.10
2022-11-09T15:45:27.167Z,12.00
2022-11-09T15:49:34.020Z,11.80
2022-11-09T15:53:16.212Z,11.70
2022-11-09T16:01:07.380Z,11.50
2022-11-09T16:05:27.731Z,11.40
2022-11-09T16:09:10.189Z,11.30
2022-11-09T16:16:51.064Z,11.10
2022-11-09T16:24:43.730Z,11.00
2022-11-09T16:32:26.606Z,10.80
2022-11-09T16:36:13.806Z,10.80
2022-11-09T16:39:55.743Z,10.90
2022-11-09T16:43:38.755Z,10.90
2022-11-09T16:47:21.767Z,11.00
2022-11-09T16:51:03.817Z,11.00
2022-11-09T16:54:45.788Z,10.90
2022-11-09T16:58:27.685Z,10.80
2022-11-09T17:02:09.768Z,10.70
2022-11-09T17:05:51.652Z,10.60
2022-11-09T17:09:34.473Z,10.50
2022-11-09T17:13:16.372Z,10.40
2022-11-09T17:16:58.368Z,10.40
2022-11-09T17:20:49.054Z,10.30
2022-11-09T17:24:32.021Z,10.20
2022-11-09T17:28:14.008Z,10.10
2022-11-09T17:31:56.533Z,10.00
2022-11-09T17:35:40.225Z,9.90
2022-11-09T17:39:22.873Z,9.80
2022-11-09T17:43:05.673Z,9.80
2022-11-09T17:46:47.987Z,9.70
2022-11-09T17:50:29.999Z,9.60
2022-11-09T17:54:12.233Z,9.60
2022-11-09T17:57:54.107Z,9.50
2022-11-09T18:01:41.070Z,9.40
2022-11-09T18:05:23.456Z,9.30
2022-11-09T18:13:08.512Z,9.20
2022-11-09T18:16:50.491Z,9.10
2022-11-09T18:20:32.852Z,9.10
2022-11-09T18:24:15.484Z,9.10
2022-11-09T18:27:57.937Z,9.00
2022-11-09T18:31:40.096Z,9.00
2022-11-09T18:35:22.348Z,9.10
2022-11-09T18:39:05.038Z,9.20
2022-11-09T18:42:47.208Z,9.20
2022-11-09T18:46:30.928Z,9.20
2022-11-09T18:50:15.146Z,9.30
2022-11-09T18:53:57.374Z,9.20
2022-11-09T18:57:39.410Z,9.20
2022-11-09T19:01:25.789Z,9.20
2022-11-09T19:05:08.911Z,9.10
2022-11-09T19:09:11.543Z,9.00
2022-11-09T19:12:53.510Z,9.00
2022-11-09T19:16:36.107Z,8.90
2022-11-09T19:20:18.456Z,8.90
2022-11-09T19:24:00.548Z,8.80
2022-11-09T19:27:42.446Z,8.80
2022-11-09T19:31:25.182Z,8.70
2022-11-09T19:35:07.519Z,8.70
2022-11-09T19:38:49.573Z,8.60
2022-11-09T19:42:31.425Z,8.60
2022-11-09T19:46:13.949Z,8.60
2022-11-09T19:49:55.963Z,8.60
2022-11-09T19:53:42.234Z,8.60
2022-11-09T19:57:24.678Z,8.60
2022-11-09T20:01:09.197Z,8.70
2022-11-09T20:04:52.394Z,8.80
2022-11-09T20:08:35.786Z,8.80
2022-11-09T20:12:36.502Z,8.80
2022-11-09T20:16:18.351Z,8.90
2022-11-09T20:20:00.368Z,8.90
2022-11-09T20:23:42.280Z,8.90
2022-11-09T20:27:28.121Z,8.90
2022-11-09T20:31:20.023Z,8.90
2022-11-09T20:35:02.084Z,8.90
2022-11-09T20:38:44.131Z,8.80
2022-11-09T20:42:26.086Z,8.80
2022-11-09T20:46:17.833Z,8.80
2022-11-09T20:49:59.692Z,8.80
2022-11-09T20:53:41.615Z,8.80
2022-11-09T20:57:23.461Z,8.90
2022-11-09T21:01:07.377Z,8.90
2022-11-09T21:04:49.370Z,8.90
2022-11-09T21:08:31.941Z,8.90
2022-11-09T21:12:22.414Z,8.90
2022-11-09T21:16:09.777Z,8.90
2022-11-09T21:19:51.664Z,8.90
2022-11-09T21:23:51.849Z,8.90
2022-11-09T21:27:52.126Z,9.00
2022-11-09T21:31:34.114Z,8.90
2022-11-09T21:35:16.020Z,8.90
2022-11-09T21:38:58.038Z,9.00
2022-11-09T21:42:39.901Z,9.00
2022-11-09T21:46:23.413Z,9.00
2022-11-09T21:50:09.717Z,9.00
2022-11-09T21:53:54.177Z,9.00
2022-11-09T21:57:36.011Z,9.00
2022-11-09T22:01:18.352Z,9.00
2022-11-09T22:05:00.222Z,9.00
2022-11-09T22:08:42.282Z,9.00
2022-11-09T22:12:42.355Z,9.00
2022-11-09T22:16:25.708Z,9.00
2022-11-09T22:20:27.462Z,9.00
2022-11-09T22:24:10.438Z,9.00
2022-11-09T22:27:52.559Z,9.00
2022-11-09T22:31:34.506Z,8.90
2022-11-09T22:35:16.652Z,9.00
2022-11-09T22:38:58.561Z,8.90
2022-11-09T22:42:40.422Z,8.90
2022-11-09T22:46:22.903Z,8.90
2022-11-09T22:50:05.174Z,8.90
2022-11-09T22:53:51.936Z,8.90
2022-11-09T22:57:34.156Z,8.90
2022-11-09T23:01:18.682Z,8.90
2022-11-09T23:05:00.573Z,8.80
2022-11-09T23:08:42.447Z,8.80
2022-11-09T23:12:24.323Z,8.80
2022-11-09T23:16:08.645Z,8.80
2022-11-09T23:19:50.653Z,8.80
2022-11-09T23:23:32.555Z,8.80
2022-11-09T23:27:14.406Z,8.90
2022-11-09T23:31:02.310Z,8.90
2022-11-09T23:34:44.142Z,8.90
2022-11-09T23:38:26.023Z,8.90
2022-11-09T23:42:07.863Z,9.00
2022-11-09T23:45:49.779Z,9.00
2022-11-09T23:49:31.820Z,9.00
2022-11-09T23:53:14.045Z,9.10
2022-11-09T23:56:55.888Z,9.10
